Locustville, VA (23404)

10:00 AM EDT am 02. September 2014 (GMT -0400)
The Frog and PenguINN | Change Station
CLOSE
Current Station
Persönliche Wetterstationen
Location: Onley, VA
Höhe: 35 ft
Wetterstationen in der Umgebung

Höhe 35 ft 37.69 °N, 75.72 °W | Updated 24 seconds ago

Heiter
Heiter
87.0 °F
gefühlte 96 °F
N
1.0
Wind Wechselnd Wind aus Süd
Gusts 1.0 mph

Heute
Max. -- | schwach -- °F
--% Regenrisiko
Gestern
Max. -- | schwach -- °F
Precip. -- inch
6:33 AM 7:30 PM
Erstes Viertel, 51% visible
Druck 29.99 inch
Sichtweite 10.0 Meilen
Wolken Heiter
Hitzeindex 96 °F
Taupunkt 75 °F
Feuchtigkeit 67%
Regen 0.00 inch
Schneehöhe Nicht verfügbar..
UV 2 von 12
Pollen 9.30 von 12
Luftqualität Nicht verfügbar..
Flu Activity Nicht verfügbar..
METAR KWAL 021254Z 28006KT 10SM CLR 29/24 A3000 RMK AO2 SLP156 T02940239

More Conditions Fewer Conditions

Druck 29.99 inch
Sichtweite 10.0 Meilen
Wolken Heiter
Hitzeindex 96 °F
Taupunkt 75 °F
Feuchtigkeit 67%
Regen 0.00 inch
Schneehöhe Nicht verfügbar..
UV 2 von 12
Pollen 9.30 von 12
Luftqualität Nicht verfügbar..
Flu Activity Nicht verfügbar..
METAR KWAL 021254Z 28006KT 10SM CLR 29/24 A3000 RMK AO2 SLP156 T02940239

More Conditions Fewer Conditions

10-Day Weather Forecast

Almanac

Astronomie

Sep. 02, 2014 Aufgang Untergang
Genaue Zeit 06:33 EDT 19:30 EDT
Bürgerliche Dämmerung 06:06 EDT 19:57 EDT
Nautische Dämmerung 05:35 EDT 20:28 EDT
Astronomische Dämmerung 05:02 EDT 21:01 EDT
Mond 14:07 EDT kein Monduntergang
Länge des sichtbaren Lichts 13h 50m
Tageslänge
12h 56m
Tomorrow will be 2m 21s shorter.
Erstes Viertel, 51% of the Moon is Illuminated
Heute
Erstes Viertel
Sept 8
Vollmond
Sept 15
Letztes Viertel
Sept 24
Neu
Okt 1
Erstes Viertel

Heutige Rekorde

State Highs State Lows

Community

WunderPhotos

Upload Photos

1,749,670 Fotos hochgeladen!

Nearby

Schneehöhe

Station Depth Höhe
Kein Neuschnee gemeldet.

Erdbebenaktivität

Stadt Distance Mag. Time & Date
No recent earthquake activity has been reported nearby.
Minimum magnitude displayed is 2.5.

küstennahe Wassertemperaturen

Ort Temperatur
Wachapreague, VA 81.0 °F
Ocean City Inlet, MD 79.0 °F
Kiptopeke, VA 82.9 °F
Bishops Head, MD 80.1 °F
Chesapeake Bay Bridge Tunnel, VA 79.0 °F
Cambridge, MD 80.1 °F

Wetterstationen in der Umgebung